Eagle, AK

5:32 AM AKDT on October 25, 2014 (GMT -0800)
Eagle | Change Station
CLOSE
Current Station
Airport
Location: Eagle,
Elevation: 879 ft
Nearby Weather Stations

Elev 879 ft 64.78 °N, 141.15 °W | Updated 39 minutes ago

Overcast
Overcast
8 °F
Feels Like 1 °F
N
4
Wind Variable Wind from South

Today
High -- | Low -- °F
--% Chance of Precip.
Yesterday
High -- | Low -- °F
Precip. -- in
8:49 AM 5:26 PM
Waxing Crescent, 3% visible
Pressure 30.00 in
Visibility 9.0 miles
Clouds Scattered Clouds 3800 ft
Overcast 7000 ft
Windchill 1 °F
Dew Point 4 °F
Humidity 83%
Rainfall 0.00 in
Snow Depth Not available.
UV 0 out of 12
Pollen Not available.
Air Quality Not available.
Flu Activity Local Activity
METAR PAEG 251253Z AUTO 18003KT 9SM SCT038 OVC070 M13/M16 A2994 RMK AO2 SLP157 T11331156 TSNO $

More Conditions Fewer Conditions

Pressure 30.00 in
Visibility 9.0 miles
Clouds Scattered Clouds 3800 ft
Overcast 7000 ft
Windchill 1 °F
Dew Point 4 °F
Humidity 83%
Rainfall 0.00 in
Snow Depth Not available.
UV 0 out of 12
Pollen Not available.
Air Quality Not available.
Flu Activity Local Activity
METAR PAEG 251253Z AUTO 18003KT 9SM SCT038 OVC070 M13/M16 A2994 RMK AO2 SLP157 T11331156 TSNO $

More Conditions Fewer Conditions

10-Day Weather Forecast

Almanac

Astronomy

Oct. 25, 2014 Rise Set
Actual Time 8:49 AM AKDT 5:26 PM AKDT
Civil Twilight 7:56 AM AKDT 6:19 PM AKDT
Nautical Twilight 6:59 AM AKDT 7:16 PM AKDT
Astronomical Twilight 6:02 AM AKDT 8:12 PM AKDT
Moon 11:12 AM AKDT 6:17 PM AKDT
Length of Visible Light 10h 22m
Length of Day
8h 37m
Tomorrow will be 6m 43s shorter.
Waxing Crescent, 3% of the Moon is Illuminated
Today
Waxing Crescent
Oct 30
First Quarter
Nov 6
Full
Nov 14
Last Quarter
Nov 22
New

Today's Extremes

State Highs State Lows

Community

WunderPhotos

Upload Photos

1,764,829 photos uploaded!

Nearby

Snow Depth

Station Depth Elevation
Upper Chena 10 in 2850 ft
Teuchet Creek 6 in 1640 ft
Eagle Summit 77 in 3650 ft
Granite Creek 6 in 1240 ft
Monument Creek 6 in 1850 ft

Earthquake Activity

City Distance Mag. Time & Date
No recent earthquake activity has been reported nearby.
Minimum magnitude displayed is 2.5.

Coastal Water Temperatures

Place Temperature
No Stations Reporting

Nearby Weather Stations